Time;durP1;ratioP1;P1;durP2;ratioP2;P2;SDS_P1;SDS_P2;PMS_P1;PMS_P2;Temp;Humidity;BMP_temperature;BMP_pressure;BME280_temperature;BME280_humidity;BME280_pressure;Samples;Min_cycle;Max_cycle;Signal;HPM_P1;HPM_P2
2021/10/31 00:00:06;;;;;;;0.93;0.20;;;22.50;57.00;;;;;;5062852;28;20098;-46
2021/10/31 00:02:39;;;;;;;0.70;0.20;;;22.50;57.00;;;;;;5053421;28;20037;-45
2021/10/31 00:05:08;;;;;;;0.20;0.20;;;22.50;57.00;;;;;;5049902;28;20044;-45
2021/10/31 00:07:36;;;;;;;0.50;0.20;;;22.50;57.00;;;;;;5057070;28;20048;-45
2021/10/31 00:10:03;;;;;;;0.20;0.10;;;22.40;56.90;;;;;;5060053;28;20040;-46
2021/10/31 00:12:31;;;;;;;0.22;0.10;;;22.40;56.90;;;;;;5063364;28;20033;-46
2021/10/31 00:14:58;;;;;;;1.55;0.10;;;22.40;56.90;;;;;;5064950;28;20102;-46
2021/10/31 00:17:25;;;;;;;1.05;0.10;;;22.40;56.90;;;;;;5053302;28;20578;-45
2021/10/31 00:19:53;;;;;;;0.10;0.10;;;22.40;56.90;;;;;;5058938;28;20076;-45
2021/10/31 00:22:20;;;;;;;0.30;0.10;;;22.40;56.90;;;;;;5043754;28;20052;-46
2021/10/31 00:24:49;;;;;;;2.60;0.10;;;22.40;56.90;;;;;;5055795;28;20639;-45
2021/10/31 00:27:16;;;;;;;1.00;0.10;;;22.40;56.90;;;;;;5056147;28;20037;-45
2021/10/31 00:29:43;;;;;;;4.22;0.30;;;22.40;57.50;;;;;;5065813;28;20044;-45
2021/10/31 00:32:10;;;;;;;0.10;0.10;;;22.40;56.90;;;;;;5051817;28;20053;-45
2021/10/31 00:34:37;;;;;;;0.10;0.10;;;22.40;57.50;;;;;;5056194;28;20057;-45
2021/10/31 00:37:04;;;;;;;0.25;0.25;;;22.40;56.80;;;;;;5058654;28;20135;-46
2021/10/31 00:39:32;;;;;;;0.32;0.10;;;22.40;56.80;;;;;;5054839;28;20135;-45
2021/10/31 00:42:00;;;;;;;0.55;0.10;;;22.30;56.80;;;;;;5052334;28;20490;-45
2021/10/31 00:44:27;;;;;;;0.30;0.10;;;22.30;56.80;;;;;;5054625;28;20474;-45
2021/10/31 00:46:55;;;;;;;0.43;0.10;;;22.30;56.70;;;;;;5051429;28;20127;-44
2021/10/31 00:49:22;;;;;;;1.85;0.10;;;22.30;56.80;;;;;;5052875;28;20138;-44
2021/10/31 00:51:49;;;;;;;0.60;0.17;;;22.40;56.80;;;;;;5049423;28;20120;-44
2021/10/31 00:54:17;;;;;;;1.17;0.10;;;22.30;56.80;;;;;;5053335;28;20039;-44
2021/10/31 00:56:44;;;;;;;2.05;0.10;;;22.30;56.70;;;;;;5050354;28;20501;-44
2021/10/31 00:59:12;;;;;;;0.13;0.10;;;22.30;56.80;;;;;;5064397;28;20118;-45
2021/10/31 01:01:39;;;;;;;0.10;0.10;;;22.30;56.70;;;;;;5054722;28;20476;-46
2021/10/31 01:04:07;;;;;;;0.38;0.10;;;22.30;57.10;;;;;;5060082;28;20040;-47
2021/10/31 01:07:03;;;;;;;0.35;0.35;;;22.30;56.70;;;;;;5059638;28;20062;-46
2021/10/31 01:09:39;;;;;;;0.30;0.10;;;22.30;56.60;;;;;;5057048;28;20115;-46
2021/10/31 01:12:21;;;;;;;1.55;0.10;;;22.30;56.70;;;;;;5054076;28;20043;-45
2021/10/31 01:15:03;;;;;;;0.65;0.20;;;22.30;56.70;;;;;;5055904;28;20040;-45
2021/10/31 01:17:57;;;;;;;1.50;0.20;;;22.30;56.70;;;;;;5049137;28;20047;-45
2021/10/31 01:20:33;;;;;;;0.22;0.10;;;22.20;56.50;;;;;;5075149;28;20044;-45
2021/10/31 01:23:30;;;;;;;0.20;0.17;;;22.30;56.70;;;;;;5049506;28;20095;-45
2021/10/31 01:26:30;;;;;;;0.80;0.10;;;22.30;56.50;;;;;;5051658;28;20045;-46
2021/10/31 01:29:13;;;;;;;0.10;0.10;;;22.30;56.70;;;;;;5069644;28;20056;-45
2021/10/31 01:31:54;;;;;;;1.77;0.03;;;22.20;56.70;;;;;;5051728;28;20076;-46
2021/10/31 01:34:31;;;;;;;0.00;0.00;;;22.20;56.70;;;;;;5063153;28;20143;-46
2021/10/31 01:37:03;;;;;;;0.57;0.10;;;22.20;56.60;;;;;;5056475;28;20107;-46
2021/10/31 01:39:38;;;;;;;0.10;0.10;;;22.20;56.60;;;;;;5053187;28;20044;-45
2021/10/31 01:42:17;;;;;;;0.17;0.10;;;22.20;56.60;;;;;;5052439;28;20086;-46
2021/10/31 01:44:52;;;;;;;0.20;0.10;;;22.20;56.60;;;;;;5053000;28;20044;-45
2021/10/31 01:47:35;;;;;;;0.10;0.10;;;22.20;56.60;;;;;;5050165;28;20044;-46
2021/10/31 01:50:11;;;;;;;1.10;0.10;;;22.20;56.60;;;;;;5048853;28;20422;-47
2021/10/31 01:52:42;;;;;;;0.43;0.10;;;22.20;56.60;;;;;;5054704;28;20053;-46
2021/10/31 01:55:14;;;;;;;0.75;0.10;;;22.20;56.50;;;;;;5054502;28;20698;-45
2021/10/31 01:57:46;;;;;;;0.10;0.10;;;22.20;56.50;;;;;;5054268;28;20511;-45
2021/10/31 02:00:16;;;;;;;0.10;0.10;;;22.20;56.50;;;;;;5063646;28;20048;-45
2021/10/31 02:02:47;;;;;;;1.35;0.75;;;22.20;56.40;;;;;;5054531;28;20036;-45
2021/10/31 02:05:17;;;;;;;0.10;0.00;;;22.20;56.40;;;;;;5054684;28;20560;-45
2021/10/31 02:07:50;;;;;;;0.08;0.00;;;22.10;56.30;;;;;;5057330;28;20095;-46
2021/10/31 02:10:18;;;;;;;0.50;0.10;;;22.20;56.30;;;;;;5072607;28;20127;-45
2021/10/31 02:12:48;;;;;;;0.45;0.10;;;22.10;56.30;;;;;;5059218;28;20134;-46
2021/10/31 02:15:16;;;;;;;0.40;0.10;;;22.10;56.30;;;;;;5058720;28;20052;-45
2021/10/31 02:17:46;;;;;;;0.10;0.10;;;22.10;56.30;;;;;;5053081;28;20148;-45
2021/10/31 02:20:13;;;;;;;1.10;0.10;;;22.10;56.20;;;;;;5053370;28;20131;-47
2021/10/31 02:22:43;;;;;;;4.60;0.10;;;22.10;56.20;;;;;;5058247;28;20098;-46
2021/10/31 02:25:11;;;;;;;0.30;0.30;;;22.10;56.20;;;;;;5060654;28;20594;-52
2021/10/31 02:27:42;;;;;;;0.17;0.10;;;22.10;56.20;;;;;;5058805;28;20086;-45
2021/10/31 02:30:11;;;;;;;0.38;0.22;;;22.10;56.20;;;;;;5063868;28;20099;-45
2021/10/31 02:32:38;;;;;;;0.47;0.00;;;22.10;56.10;;;;;;5055258;28;20044;-46
2021/10/31 02:35:08;;;;;;;0.08;0.08;;;22.10;56.70;;;;;;5058002;28;20656;-46
2021/10/31 02:37:37;;;;;;;0.10;0.10;;;22.10;56.10;;;;;;5061415;28;20518;-46
2021/10/31 02:40:06;;;;;;;0.90;0.10;;;22.10;56.10;;;;;;5059337;28;20033;-45
2021/10/31 02:42:35;;;;;;;0.75;0.20;;;22.10;56.00;;;;;;5059993;28;20609;-45
2021/10/31 02:45:02;;;;;;;0.25;0.10;;;22.10;56.00;;;;;;5056642;28;20033;-46
2021/10/31 02:47:32;;;;;;;2.05;0.20;;;22.10;56.00;;;;;;5064347;28;20081;-45
2021/10/31 02:50:01;;;;;;;0.08;0.08;;;22.10;56.00;;;;;;5055387;28;20115;-46
2021/10/31 02:52:37;;;;;;;0.40;0.10;;;22.10;56.00;;;;;;5067002;28;20098;-45
2021/10/31 02:55:11;;;;;;;2.38;0.10;;;22.10;56.00;;;;;;5043764;28;20041;-46
2021/10/31 02:57:49;;;;;;;0.47;0.10;;;22.10;56.00;;;;;;5056233;28;20458;-46
2021/10/31 03:00:18;;;;;;;0.10;0.10;;;22.10;56.00;;;;;;5065619;28;20127;-45
2021/10/31 03:02:50;;;;;;;0.20;0.20;;;22.00;56.00;;;;;;5049468;28;20540;-45
2021/10/31 03:05:17;;;;;;;0.10;0.10;;;22.10;56.00;;;;;;5057032;28;20063;-45
2021/10/31 03:07:44;;;;;;;0.40;0.10;;;22.00;56.00;;;;;;5058999;28;20087;-45
2021/10/31 03:10:16;;;;;;;0.10;0.10;;;22.00;55.90;;;;;;5058059;28;20758;-45
2021/10/31 03:12:45;;;;;;;2.75;0.30;;;22.00;55.90;;;;;;5053218;28;20044;-45
2021/10/31 03:15:12;;;;;;;0.25;0.10;;;22.00;55.90;;;;;;5054629;28;20044;-45
2021/10/31 03:17:39;;;;;;;1.17;0.10;;;22.00;56.40;;;;;;5065604;28;20450;-45
2021/10/31 03:20:07;;;;;;;0.32;0.10;;;22.00;55.80;;;;;;5052953;28;20072;-46
2021/10/31 03:22:35;;;;;;;0.10;0.10;;;22.00;55.80;;;;;;5054414;28;20049;-45
2021/10/31 03:25:02;;;;;;;0.13;0.10;;;22.00;55.80;;;;;;5062640;28;20043;-45
2021/10/31 03:27:29;;;;;;;0.82;0.10;;;22.00;55.80;;;;;;5064796;28;20075;-45
2021/10/31 03:29:58;;;;;;;6.25;0.20;;;22.00;55.80;;;;;;5064862;28;20040;-45
2021/10/31 03:32:25;;;;;;;0.10;0.10;;;22.00;55.80;;;;;;5054302;28;20059;-46
2021/10/31 03:34:52;;;;;;;0.45;0.10;;;22.00;55.80;;;;;;5060729;28;20128;-46
2021/10/31 03:37:19;;;;;;;0.95;0.55;;;22.00;55.80;;;;;;5057606;28;20120;-46
2021/10/31 03:39:46;;;;;;;0.10;0.10;;;22.00;55.90;;;;;;5058322;28;20029;-52
2021/10/31 03:42:13;;;;;;;0.13;0.10;;;22.00;55.90;;;;;;5056745;28;20071;-46
2021/10/31 03:44:48;;;;;;;0.20;0.20;;;22.00;55.80;;;;;;5066079;28;20044;-46
2021/10/31 03:47:17;;;;;;;0.30;0.30;;;21.90;55.70;;;;;;5053372;28;20056;-46
2021/10/31 03:49:44;;;;;;;0.80;0.10;;;22.00;55.80;;;;;;5057844;28;20044;-45
2021/10/31 03:52:12;;;;;;;0.20;0.10;;;22.00;55.80;;;;;;5052875;28;20037;-46
2021/10/31 03:54:40;;;;;;;1.95;0.10;;;22.00;55.80;;;;;;5066973;28;20051;-45
2021/10/31 03:57:08;;;;;;;0.75;0.10;;;22.00;55.70;;;;;;5053199;28;20055;-45
2021/10/31 03:59:35;;;;;;;0.43;0.43;;;22.00;55.70;;;;;;5061832;28;20045;-46
2021/10/31 04:02:03;;;;;;;0.22;0.10;;;21.90;55.70;;;;;;5053497;28;20047;-46
2021/10/31 04:04:32;;;;;;;1.45;0.10;;;21.90;55.70;;;;;;5061910;28;20048;-45
2021/10/31 04:06:59;;;;;;;1.02;0.20;;;21.90;55.60;;;;;;5059188;28;20067;-45
2021/10/31 04:09:26;;;;;;;1.20;0.10;;;21.90;55.60;;;;;;5055437;28;20056;-45
2021/10/31 04:11:53;;;;;;;2.15;0.10;;;21.90;55.70;;;;;;5052408;28;20082;-45
2021/10/31 04:14:20;;;;;;;0.13;0.10;;;21.90;55.60;;;;;;5052436;28;20554;-45
2021/10/31 04:16:48;;;;;;;0.17;0.10;;;21.90;55.70;;;;;;5066246;28;20036;-45
2021/10/31 04:19:15;;;;;;;0.15;0.10;;;21.90;55.60;;;;;;5064387;28;20142;-45
2021/10/31 04:21:43;;;;;;;0.25;0.10;;;21.90;55.60;;;;;;5063786;28;20087;-45
2021/10/31 04:24:11;;;;;;;0.73;0.20;;;21.90;55.60;;;;;;5053451;28;20043;-45
2021/10/31 04:26:38;;;;;;;1.30;0.20;;;21.90;55.60;;;;;;5055551;28;20044;-45
2021/10/31 04:29:05;;;;;;;1.15;0.10;;;21.90;55.70;;;;;;5048417;28;20040;-46
2021/10/31 04:31:32;;;;;;;0.10;0.10;;;21.80;55.60;;;;;;5053943;28;20088;-45
2021/10/31 04:33:59;;;;;;;3.38;0.13;;;21.90;55.60;;;;;;5054724;28;20049;-45
2021/10/31 04:36:27;;;;;;;0.20;0.10;;;21.80;55.60;;;;;;5039723;28;20048;-45
2021/10/31 04:38:56;;;;;;;1.75;0.10;;;21.80;55.50;;;;;;5051548;28;20529;-45
2021/10/31 04:41:25;;;;;;;0.22;0.10;;;21.90;55.60;;;;;;5053550;28;20053;-45
2021/10/31 04:43:52;;;;;;;0.52;0.10;;;21.80;55.50;;;;;;5052313;28;20051;-45
2021/10/31 04:46:19;;;;;;;0.73;0.20;;;21.80;55.60;;;;;;5051622;28;20107;-45
2021/10/31 04:48:46;;;;;;;1.95;0.10;;;21.80;55.60;;;;;;5056406;28;20098;-45
2021/10/31 04:51:13;;;;;;;0.40;0.20;;;21.80;55.60;;;;;;5055032;28;20558;-46
2021/10/31 04:53:40;;;;;;;0.73;0.10;;;21.80;55.60;;;;;;5052047;28;20036;-46
2021/10/31 04:56:09;;;;;;;0.20;0.20;;;21.80;55.60;;;;;;5062463;28;20049;-44
2021/10/31 04:58:36;;;;;;;1.65;0.45;;;21.80;55.60;;;;;;5061373;28;20048;-45
2021/10/31 05:01:03;;;;;;;0.25;0.17;;;21.80;55.60;;;;;;5063906;28;20119;-46
2021/10/31 05:03:31;;;;;;;0.35;0.10;;;21.80;55.60;;;;;;5062057;28;20577;-46
2021/10/31 05:05:59;;;;;;;0.57;0.10;;;21.80;56.20;;;;;;5053399;28;20054;-45
2021/10/31 05:08:26;;;;;;;0.55;0.30;;;21.80;55.60;;;;;;5054489;28;20041;-45
2021/10/31 05:10:54;;;;;;;0.50;0.10;;;21.80;55.60;;;;;;5065094;28;20041;-46
2021/10/31 05:13:23;;;;;;;0.10;0.10;;;21.70;55.50;;;;;;5059653;28;20053;-45
2021/10/31 05:15:50;;;;;;;0.82;0.82;;;21.70;55.50;;;;;;5039912;28;20105;-45
2021/10/31 05:18:17;;;;;;;0.80;0.10;;;21.70;55.50;;;;;;5050081;28;20053;-46
2021/10/31 05:20:44;;;;;;;0.10;0.10;;;21.70;55.60;;;;;;5047829;28;20076;-46
2021/10/31 05:23:11;;;;;;;0.73;0.10;;;21.70;55.60;;;;;;5065073;28;20047;-45
2021/10/31 05:25:38;;;;;;;0.10;0.10;;;21.70;55.70;;;;;;5064037;28;20151;-45
2021/10/31 05:28:05;;;;;;;0.10;0.10;;;21.70;55.60;;;;;;5056251;28;20585;-46
2021/10/31 05:30:34;;;;;;;0.55;0.25;;;21.70;56.20;;;;;;5063001;28;20120;-45
2021/10/31 05:33:03;;;;;;;2.70;0.10;;;21.70;55.60;;;;;;5053819;28;20507;-45
2021/10/31 05:35:30;;;;;;;5.97;1.10;;;21.70;55.60;;;;;;5050242;28;20760;-45
2021/10/31 05:37:57;;;;;;;1.88;0.20;;;21.70;55.60;;;;;;5055827;28;20041;-45
2021/10/31 05:40:26;;;;;;;1.65;0.25;;;21.70;55.60;;;;;;5062829;28;20041;-46
2021/10/31 05:42:53;;;;;;;0.40;0.10;;;21.70;55.70;;;;;;5062734;28;20036;-45
2021/10/31 05:45:20;;;;;;;0.10;0.10;;;21.70;55.70;;;;;;5050700;28;20067;-46
2021/10/31 05:47:51;;;;;;;3.70;0.10;;;21.70;55.70;;;;;;5054996;28;20041;-45
2021/10/31 05:50:19;;;;;;;2.00;0.20;;;21.70;55.70;;;;;;5058806;28;20522;-46
2021/10/31 05:52:47;;;;;;;0.77;0.10;;;21.70;55.70;;;;;;5058298;28;20045;-45
2021/10/31 05:55:15;;;;;;;0.45;0.10;;;21.70;55.70;;;;;;5065297;28;20115;-46
2021/10/31 05:57:43;;;;;;;0.68;0.10;;;21.70;55.70;;;;;;5068037;28;20037;-45
2021/10/31 06:00:12;;;;;;;1.27;0.10;;;21.70;55.70;;;;;;5068370;28;20159;-46
2021/10/31 06:02:46;;;;;;;1.33;0.10;;;21.70;55.70;;;;;;5067453;28;20847;-46
2021/10/31 06:05:15;;;;;;;0.47;0.47;;;21.70;55.80;;;;;;5068603;28;20049;-45
2021/10/31 06:07:43;;;;;;;0.35;0.35;;;21.70;55.70;;;;;;5056077;28;20163;-46
2021/10/31 06:10:11;;;;;;;0.10;0.10;;;21.70;55.80;;;;;;5054109;28;20148;-46
2021/10/31 06:12:42;;;;;;;0.70;0.10;;;21.70;55.80;;;;;;5058935;28;20071;-46
2021/10/31 06:15:09;;;;;;;2.88;0.20;;;21.70;55.80;;;;;;5066360;28;20123;-44
2021/10/31 06:17:38;;;;;;;1.20;0.55;;;21.70;55.80;;;;;;5065442;28;20119;-45
2021/10/31 06:20:07;;;;;;;0.73;0.40;;;21.70;55.80;;;;;;5051059;28;20577;-45
2021/10/31 06:22:35;;;;;;;0.90;0.10;;;21.70;55.80;;;;;;5062513;28;20051;-45
2021/10/31 06:25:03;;;;;;;2.88;0.50;;;21.70;55.80;;;;;;5056951;28;20053;-45
2021/10/31 06:27:30;;;;;;;13.88;0.10;;;21.70;55.80;;;;;;5058578;28;20041;-46
2021/10/31 06:29:57;;;;;;;5.18;0.20;;;21.70;55.90;;;;;;5065263;28;20054;-46
2021/10/31 06:32:24;;;;;;;1.58;0.13;;;21.70;56.00;;;;;;5067318;28;20072;-46
2021/10/31 06:34:51;;;;;;;2.58;0.10;;;21.70;56.10;;;;;;5066690;28;20044;-43
2021/10/31 06:37:19;;;;;;;2.60;0.20;;;21.70;56.10;;;;;;5067089;28;20033;-44
2021/10/31 06:39:47;;;;;;;2.05;0.10;;;21.70;56.20;;;;;;5064464;28;20123;-44
2021/10/31 06:42:14;;;;;;;3.30;0.10;;;21.70;56.20;;;;;;5060763;28;20036;-46
2021/10/31 06:44:41;;;;;;;5.57;0.68;;;21.70;56.20;;;;;;5066471;28;20039;-47
2021/10/31 06:47:08;;;;;;;12.07;0.10;;;21.80;56.50;;;;;;5054768;28;20070;-47
2021/10/31 06:49:37;;;;;;;0.95;0.20;;;21.80;56.50;;;;;;5054694;28;20052;-44
2021/10/31 06:52:05;;;;;;;4.85;0.10;;;21.70;56.40;;;;;;5060222;28;20043;-47
2021/10/31 06:54:32;;;;;;;4.00;0.10;;;21.80;56.40;;;;;;5066138;28;20384;-47
2021/10/31 06:57:00;;;;;;;34.50;2.40;;;21.80;56.40;;;;;;5066428;28;20048;-45
2021/10/31 06:59:27;;;;;;;15.98;0.93;;;21.80;58.10;;;;;;5065464;28;20048;-46
2021/10/31 07:01:54;;;;;;;5.18;0.60;;;21.80;59.90;;;;;;5065932;28;20041;-46
2021/10/31 07:04:22;;;;;;;10.10;0.40;;;21.70;60.10;;;;;;5065561;28;20434;-46
2021/10/31 07:06:49;;;;;;;6.95;0.65;;;21.70;60.60;;;;;;5067866;28;20091;-46
2021/10/31 07:09:16;;;;;;;4.32;0.40;;;21.60;60.50;;;;;;5063963;28;20503;-46
2021/10/31 07:11:43;;;;;;;11.23;1.63;;;21.50;60.70;;;;;;5066854;28;20123;-46
2021/10/31 07:14:12;;;;;;;3.25;0.30;;;21.50;61.00;;;;;;5055511;28;20077;-46
2021/10/31 07:16:39;;;;;;;4.07;0.30;;;21.50;61.30;;;;;;5057414;28;20048;-46
2021/10/31 07:19:06;;;;;;;9.13;0.30;;;21.40;61.60;;;;;;5057656;28;20134;-46
2021/10/31 07:21:33;;;;;;;3.97;0.70;;;21.30;61.80;;;;;;5071150;28;20048;-46
2021/10/31 07:24:01;;;;;;;5.07;1.00;;;21.40;62.10;;;;;;5054908;28;20114;-46
2021/10/31 07:26:28;;;;;;;7.55;0.43;;;21.30;62.40;;;;;;5053632;28;20036;-46
2021/10/31 07:28:55;;;;;;;4.68;0.63;;;21.30;62.60;;;;;;5060455;28;20132;-46
2021/10/31 07:31:29;;;;;;;1.50;0.25;;;21.30;63.20;;;;;;5059984;28;20065;-46
2021/10/31 07:33:57;;;;;;;8.10;0.30;;;21.20;63.40;;;;;;5057994;28;20049;-46
2021/10/31 07:36:24;;;;;;;2.42;0.30;;;21.20;63.00;;;;;;5056269;28;20044;-46
2021/10/31 07:38:51;;;;;;;2.88;0.20;;;21.20;63.10;;;;;;5054314;28;20135;-46
2021/10/31 07:41:18;;;;;;;4.22;0.35;;;21.20;63.20;;;;;;5066304;28;20048;-46
2021/10/31 07:43:45;;;;;;;6.05;0.40;;;21.10;63.30;;;;;;5053683;28;20049;-47
2021/10/31 07:46:12;;;;;;;1.65;0.57;;;21.10;63.40;;;;;;5060446;28;20642;-46
2021/10/31 07:48:41;;;;;;;1.08;0.20;;;21.10;63.40;;;;;;5056528;28;20095;-46
2021/10/31 07:51:09;;;;;;;2.70;0.30;;;21.10;63.40;;;;;;5053151;28;20131;-46
2021/10/31 07:53:41;;;;;;;0.50;0.10;;;21.10;63.40;;;;;;5055325;28;20486;-46
2021/10/31 07:56:10;;;;;;;3.28;0.20;;;21.10;63.50;;;;;;5056181;28;20223;-46
2021/10/31 07:58:37;;;;;;;3.05;0.13;;;21.10;63.40;;;;;;5067557;28;20047;-46
2021/10/31 08:01:04;;;;;;;3.40;0.20;;;21.00;63.40;;;;;;5062566;28;20036;-45
2021/10/31 08:03:31;;;;;;;1.50;0.55;;;21.10;63.50;;;;;;5066175;28;20037;-46
2021/10/31 08:06:02;;;;;;;0.82;0.20;;;21.00;63.40;;;;;;5056218;28;20032;-46
2021/10/31 08:08:30;;;;;;;2.15;0.20;;;21.00;63.40;;;;;;5053233;28;20056;-46
2021/10/31 08:10:57;;;;;;;1.35;0.38;;;21.00;63.40;;;;;;5056901;28;20041;-46
2021/10/31 08:13:28;;;;;;;2.13;0.32;;;21.00;63.30;;;;;;5062301;28;20048;-46
2021/10/31 08:15:56;;;;;;;2.58;0.10;;;21.00;63.30;;;;;;5057193;28;20033;-46
2021/10/31 08:18:23;;;;;;;0.32;0.10;;;21.00;63.30;;;;;;5055742;28;20041;-46
2021/10/31 08:20:51;;;;;;;1.15;0.60;;;21.00;63.30;;;;;;5055887;28;20049;-46
2021/10/31 08:23:19;;;;;;;1.38;0.55;;;21.00;63.30;;;;;;5051369;28;20045;-46
2021/10/31 08:25:48;;;;;;;2.63;0.15;;;21.00;63.20;;;;;;5053681;28;20037;-46
2021/10/31 08:28:16;;;;;;;1.05;0.10;;;21.00;63.20;;;;;;5058582;28;20606;-46
2021/10/31 08:30:48;;;;;;;1.23;0.13;;;21.00;63.10;;;;;;5064739;28;20589;-46
2021/10/31 08:33:22;;;;;;;1.58;0.10;;;21.00;63.10;;;;;;5064401;28;20048;-46
2021/10/31 08:35:49;;;;;;;0.10;0.10;;;21.00;63.00;;;;;;5052671;28;20036;-46
2021/10/31 08:38:16;;;;;;;0.35;0.10;;;21.00;63.00;;;;;;5055605;28;20914;-46
2021/10/31 08:40:47;;;;;;;0.13;0.10;;;21.00;62.90;;;;;;5055150;28;20102;-46
2021/10/31 08:43:15;;;;;;;0.22;0.20;;;21.00;62.90;;;;;;5058750;28;20099;-46
2021/10/31 08:45:43;;;;;;;3.28;0.30;;;21.00;62.80;;;;;;5059109;28;20105;-46
2021/10/31 08:48:10;;;;;;;1.15;0.10;;;21.00;62.80;;;;;;5055054;28;20063;-46
2021/10/31 08:50:37;;;;;;;0.45;0.15;;;21.00;62.70;;;;;;5051749;28;20115;-46
2021/10/31 08:53:05;;;;;;;3.95;0.10;;;21.00;62.70;;;;;;5052139;28;20044;-46
2021/10/31 08:55:32;;;;;;;1.77;0.10;;;21.00;62.60;;;;;;5060371;28;20053;-46
2021/10/31 08:58:01;;;;;;;1.00;0.20;;;21.00;62.50;;;;;;5059226;28;20044;-46
2021/10/31 09:00:28;;;;;;;1.50;0.10;;;21.00;62.40;;;;;;5062951;28;20481;-45
2021/10/31 09:02:55;;;;;;;3.33;0.20;;;21.00;62.40;;;;;;5063275;28;20645;-46
2021/10/31 09:05:22;;;;;;;0.52;0.52;;;21.00;62.30;;;;;;5063837;28;20143;-46
2021/10/31 09:07:49;;;;;;;0.20;0.10;;;21.00;62.20;;;;;;5055988;28;20510;-46
2021/10/31 09:10:16;;;;;;;0.10;0.05;;;21.00;62.20;;;;;;5057182;28;20556;-46
2021/10/31 09:12:43;;;;;;;0.25;0.10;;;21.00;62.10;;;;;;5052528;28;20129;-47
2021/10/31 09:15:12;;;;;;;0.65;0.10;;;21.00;62.00;;;;;;5055694;28;20068;-46
2021/10/31 09:17:39;;;;;;;0.43;0.10;;;21.00;61.90;;;;;;5056825;28;20819;-46
2021/10/31 09:20:06;;;;;;;1.45;0.10;;;21.00;61.80;;;;;;5054418;28;20136;-47
2021/10/31 09:22:33;;;;;;;2.92;0.30;;;21.00;61.80;;;;;;5053614;28;20523;-46
2021/10/31 09:25:00;;;;;;;0.20;0.10;;;21.10;61.70;;;;;;5054129;28;20037;-46
2021/10/31 09:27:28;;;;;;;0.30;0.10;;;21.10;61.60;;;;;;5055044;28;20047;-46
2021/10/31 09:29:55;;;;;;;0.60;0.20;;;21.10;62.10;;;;;;5062091;28;20036;-46
2021/10/31 09:32:46;;;;;;;1.30;0.55;;;21.10;61.40;;;;;;5050613;28;20538;-46
2021/10/31 09:35:16;;;;;;;0.43;0.10;;;21.10;61.30;;;;;;5053562;28;20090;-46
2021/10/31 09:37:44;;;;;;;0.88;0.10;;;21.10;61.30;;;;;;5057799;28;20048;-46
2021/10/31 09:40:12;;;;;;;0.40;0.10;;;21.10;61.20;;;;;;5055722;28;20052;-45
2021/10/31 09:42:39;;;;;;;1.13;0.10;;;21.10;61.10;;;;;;5056478;28;20052;-46
2021/10/31 09:45:08;;;;;;;0.30;0.10;;;21.10;61.00;;;;;;5054203;28;20585;-46
2021/10/31 09:47:36;;;;;;;1.35;0.13;;;21.20;60.90;;;;;;5064511;28;20040;-46
2021/10/31 09:50:04;;;;;;;2.53;0.50;;;21.20;60.80;;;;;;5052966;28;20257;-46
2021/10/31 09:52:31;;;;;;;0.90;0.10;;;21.20;60.70;;;;;;5056452;28;20502;-46
2021/10/31 09:54:58;;;;;;;0.20;0.10;;;21.20;60.60;;;;;;5051636;28;20041;-46
2021/10/31 09:57:25;;;;;;;0.30;0.10;;;21.20;60.50;;;;;;5057391;28;20560;-46
2021/10/31 09:59:54;;;;;;;0.10;0.10;;;21.20;60.40;;;;;;5058967;28;20083;-46
2021/10/31 10:02:45;;;;;;;0.43;0.10;;;21.20;60.30;;;;;;5053213;28;20053;-46
2021/10/31 10:05:23;;;;;;;0.10;0.10;;;21.20;60.30;;;;;;5048172;28;20041;-46
2021/10/31 10:08:11;;;;;;;1.55;0.20;;;21.30;60.20;;;;;;5051659;28;20037;-46
2021/10/31 10:10:46;;;;;;;0.43;0.10;;;21.30;60.00;;;;;;5055901;28;20069;-46
2021/10/31 10:13:19;;;;;;;0.10;0.10;;;21.30;60.00;;;;;;5053249;28;20438;-46
2021/10/31 10:15:46;;;;;;;1.65;0.65;;;21.30;60.00;;;;;;5054710;28;20039;-46
2021/10/31 10:18:28;;;;;;;0.65;0.30;;;21.30;59.80;;;;;;5053724;28;20045;-46
2021/10/31 10:21:13;;;;;;;2.10;0.65;;;21.40;59.70;;;;;;5055493;28;20033;-46
2021/10/31 10:23:46;;;;;;;0.30;0.30;;;21.40;59.70;;;;;;5051319;28;20041;-46
2021/10/31 10:26:13;;;;;;;0.20;0.10;;;21.40;59.60;;;;;;5054720;28;20041;-46
2021/10/31 10:28:40;;;;;;;0.30;0.20;;;21.40;59.50;;;;;;5070024;28;20502;-48
2021/10/31 10:31:20;;;;;;;1.75;0.10;;;21.40;59.40;;;;;;5061761;28;20068;-47
2021/10/31 10:33:48;;;;;;;0.85;0.10;;;21.50;59.40;;;;;;5060389;28;20592;-46
2021/10/31 10:36:17;;;;;;;0.22;0.10;;;21.50;59.30;;;;;;5053554;28;20044;-46
2021/10/31 10:38:58;;;;;;;0.60;0.30;;;21.50;59.10;;;;;;5054918;28;20052;-46
2021/10/31 10:41:38;;;;;;;2.00;0.10;;;21.60;59.10;;;;;;5054461;28;20040;-46
2021/10/31 10:44:17;;;;;;;0.22;0.15;;;21.60;58.90;;;;;;5058169;28;20402;-46
2021/10/31 10:46:45;;;;;;;2.47;0.10;;;21.60;58.80;;;;;;5055977;28;20045;-46
2021/10/31 10:49:17;;;;;;;0.10;0.10;;;21.60;58.80;;;;;;5056882;28;20586;-46
2021/10/31 10:51:46;;;;;;;0.47;0.10;;;21.60;58.70;;;;;;5068132;28;20144;-46
2021/10/31 10:54:15;;;;;;;1.45;0.10;;;21.70;58.60;;;;;;5057172;28;20040;-46
2021/10/31 10:57:02;;;;;;;0.75;0.10;;;21.70;58.50;;;;;;5060583;28;20607;-46
2021/10/31 10:59:30;;;;;;;0.65;0.10;;;21.80;58.40;;;;;;5065744;28;20041;-46
2021/10/31 11:02:08;;;;;;;1.35;0.10;;;21.70;58.40;;;;;;5059933;28;20128;-46
2021/10/31 11:04:36;;;;;;;0.98;0.10;;;21.80;58.30;;;;;;5057442;28;20041;-46
2021/10/31 11:07:05;;;;;;;0.10;0.10;;;21.80;58.30;;;;;;5063327;28;20390;-46
2021/10/31 11:09:40;;;;;;;2.72;0.10;;;21.80;58.20;;;;;;5064710;28;20056;-46
2021/10/31 11:12:23;;;;;;;1.43;0.30;;;21.90;58.30;;;;;;5064447;28;20044;-46
2021/10/31 11:14:52;;;;;;;0.35;0.20;;;22.00;58.20;;;;;;5061042;28;20391;-46
2021/10/31 11:17:20;;;;;;;1.00;0.20;;;22.00;58.00;;;;;;5054973;28;20509;-46
2021/10/31 11:19:48;;;;;;;2.45;0.20;;;22.00;57.90;;;;;;5056011;28;20511;-46
2021/10/31 11:22:18;;;;;;;1.05;0.50;;;22.00;57.80;;;;;;5064965;28;20036;-46
2021/10/31 11:24:48;;;;;;;2.05;0.20;;;22.10;57.70;;;;;;5064338;28;20054;-46
2021/10/31 11:27:17;;;;;;;1.70;0.15;;;22.10;57.70;;;;;;5055561;28;20056;-46
2021/10/31 11:29:46;;;;;;;0.95;0.20;;;22.10;57.60;;;;;;5066170;28;20071;-46
2021/10/31 11:32:14;;;;;;;1.50;0.20;;;22.10;57.60;;;;;;5051727;28;20529;-46
2021/10/31 11:34:44;;;;;;;0.32;0.13;;;22.10;57.60;;;;;;5060034;28;20051;-46
2021/10/31 11:37:13;;;;;;;0.93;0.10;;;22.10;57.60;;;;;;5056348;28;20098;-53
2021/10/31 11:39:43;;;;;;;0.63;0.10;;;22.10;57.60;;;;;;5056335;28;20051;-46
2021/10/31 11:42:12;;;;;;;0.10;0.10;;;22.10;57.50;;;;;;5064362;28;20075;-46
2021/10/31 11:45:05;;;;;;;2.53;0.10;;;22.10;57.50;;;;;;5056185;28;20506;-46
2021/10/31 11:47:32;;;;;;;1.52;0.20;;;22.10;57.40;;;;;;5046616;28;20052;-46
2021/10/31 11:50:05;;;;;;;0.65;0.10;;;22.10;57.50;;;;;;5054132;28;20047;-46
2021/10/31 11:52:51;;;;;;;0.70;0.10;;;22.10;57.50;;;;;;5061514;28;20047;-46
2021/10/31 11:55:34;;;;;;;;;;;22.10;57.40;;;;;;5057884;28;20040;-46
2021/10/31 11:58:30;;;;;;;0.20;0.10;;;22.00;57.50;;;;;;5058107;28;19921;-46
2021/10/31 12:01:11;;;;;;;1.27;0.10;;;22.00;57.70;;;;;;5066856;28;20041;-46
2021/10/31 12:03:44;;;;;;;0.52;0.10;;;22.00;57.70;;;;;;5060259;28;20098;-46
2021/10/31 12:06:53;;;;;;;0.20;0.10;;;22.00;57.80;;;;;;5063789;28;20041;-46
2021/10/31 12:09:31;;;;;;;0.90;0.10;;;22.00;58.30;;;;;;5044240;28;20056;-46
2021/10/31 12:12:21;;;;;;;1.05;0.63;;;22.00;57.80;;;;;;5051469;28;20510;-46
2021/10/31 12:14:51;;;;;;;1.52;0.10;;;22.00;57.80;;;;;;5053096;28;20064;-46
2021/10/31 12:17:19;;;;;;;0.30;0.10;;;22.00;57.90;;;;;;5054506;28;20067;-46
2021/10/31 12:19:48;;;;;;;1.30;0.10;;;22.00;57.90;;;;;;5054366;28;20036;-46
2021/10/31 12:22:18;;;;;;;0.10;0.10;;;22.00;57.90;;;;;;5055730;28;20566;-46
2021/10/31 12:24:47;;;;;;;0.77;0.10;;;22.00;58.50;;;;;;5059891;28;20422;-46
2021/10/31 12:27:16;;;;;;;0.10;0.10;;;22.00;57.90;;;;;;5055169;28;20049;-46
2021/10/31 12:33:05;;;;;;;0.32;0.10;;;22.10;57.90;;;;;;5054522;28;20068;-46
2021/10/31 12:35:34;;;;;;;0.30;0.15;;;22.00;58.00;;;;;;5050452;28;20123;-46
2021/10/31 12:38:35;;;;;;;0.10;0.10;;;22.00;58.00;;;;;;5050565;28;20037;-46
2021/10/31 12:41:38;;;;;;;1.00;0.00;;;22.00;58.00;;;;;;5027441;28;20224;-46
2021/10/31 12:44:14;;;;;;;0.60;0.10;;;22.00;58.10;;;;;;5057811;28;20051;-46
2021/10/31 12:46:44;;;;;;;1.75;0.10;;;22.00;58.10;;;;;;5056289;28;20040;-46
2021/10/31 12:49:21;;;;;;;0.38;0.10;;;22.00;58.10;;;;;;5057512;28;20041;-47
2021/10/31 12:51:53;;;;;;;1.23;0.10;;;22.00;58.10;;;;;;5054453;28;20045;-46
2021/10/31 12:54:25;;;;;;;1.77;0.03;;;22.00;58.10;;;;;;5048026;28;20045;-46
2021/10/31 12:56:54;;;;;;;0.85;0.10;;;22.00;58.10;;;;;;5058173;28;20522;-46
2021/10/31 12:59:22;;;;;;;0.85;0.13;;;22.00;58.10;;;;;;5060996;28;20127;-46
2021/10/31 13:02:04;;;;;;;4.38;0.00;;;22.00;58.00;;;;;;5057780;28;20036;-46
2021/10/31 13:04:31;;;;;;;0.10;0.10;;;22.10;58.00;;;;;;5053702;28;20572;-46
2021/10/31 13:07:00;;;;;;;0.20;0.10;;;22.00;58.00;;;;;;5060239;28;20083;-46